createdAt,value
2019-05-26T00:00:38.307Z,16.60
2019-05-26T00:02:59.808Z,16.50
2019-05-26T00:05:21.800Z,16.50
2019-05-26T00:07:43.340Z,16.50
2019-05-26T00:10:06.526Z,16.50
2019-05-26T00:12:28.014Z,16.40
2019-05-26T00:14:49.539Z,16.40
2019-05-26T00:17:11.341Z,16.40
2019-05-26T00:19:32.830Z,16.40
2019-05-26T00:21:54.814Z,16.30
2019-05-26T00:24:16.310Z,16.30
2019-05-26T00:26:37.883Z,16.30
2019-05-26T00:28:59.521Z,16.30
2019-05-26T00:31:26.653Z,16.20
2019-05-26T00:33:48.392Z,16.20
2019-05-26T00:36:09.895Z,16.20
2019-05-26T00:38:31.381Z,16.10
2019-05-26T00:40:52.969Z,16.10
2019-05-26T00:43:14.482Z,16.00
2019-05-26T00:45:36.066Z,16.00
2019-05-26T00:47:57.641Z,15.90
2019-05-26T00:50:19.160Z,15.90
2019-05-26T00:52:40.749Z,15.90
2019-05-26T00:55:04.142Z,15.90
2019-05-26T00:57:25.777Z,15.90
2019-05-26T00:59:47.369Z,15.90
2019-05-26T01:02:08.907Z,15.90
2019-05-26T01:04:30.358Z,15.90
2019-05-26T01:06:52.319Z,15.90
2019-05-26T01:09:13.851Z,15.80
2019-05-26T01:11:35.328Z,15.70
2019-05-26T01:13:56.812Z,15.60
2019-05-26T01:16:18.387Z,15.50
2019-05-26T01:18:40.278Z,15.50
2019-05-26T01:21:01.866Z,15.40
2019-05-26T01:23:23.366Z,15.30
2019-05-26T01:25:44.868Z,15.40
2019-05-26T01:28:06.345Z,15.40
2019-05-26T01:30:33.744Z,15.40
2019-05-26T01:32:55.224Z,15.40
2019-05-26T01:35:16.705Z,15.40
2019-05-26T01:37:38.840Z,15.40
2019-05-26T01:40:00.342Z,15.40
2019-05-26T01:42:21.821Z,15.40
2019-05-26T01:44:43.366Z,15.40
2019-05-26T01:47:04.841Z,15.30
2019-05-26T01:49:26.332Z,15.40
2019-05-26T01:51:47.938Z,15.40
2019-05-26T01:54:09.551Z,15.30
2019-05-26T01:56:31.512Z,15.30
2019-05-26T01:58:53.743Z,15.20
2019-05-26T02:01:15.333Z,15.20
2019-05-26T02:03:37.285Z,15.10
2019-05-26T02:05:59.135Z,15.10
2019-05-26T02:08:21.094Z,15.10
2019-05-26T02:10:43.075Z,15.10
2019-05-26T02:13:04.689Z,15.00
2019-05-26T02:15:28.294Z,14.90
2019-05-26T02:17:49.890Z,14.90
2019-05-26T02:20:11.907Z,14.90
2019-05-26T02:22:33.525Z,14.80
2019-05-26T02:24:55.099Z,14.80
2019-05-26T02:27:16.625Z,14.80
2019-05-26T02:29:38.223Z,14.80
2019-05-26T02:31:59.828Z,14.80
2019-05-26T02:34:21.484Z,14.80
2019-05-26T02:36:43.078Z,14.80
2019-05-26T02:39:06.971Z,14.80
2019-05-26T02:41:28.821Z,14.80
2019-05-26T02:43:50.667Z,14.80
2019-05-26T02:46:12.266Z,14.70
2019-05-26T02:48:33.900Z,14.70
2019-05-26T02:50:55.391Z,14.70
2019-05-26T02:53:16.982Z,14.60
2019-05-26T02:55:38.511Z,14.60
2019-05-26T02:58:00.004Z,14.50
2019-05-26T03:00:44.349Z,14.50
2019-05-26T03:03:07.429Z,14.40
2019-05-26T03:05:30.818Z,14.40
2019-05-26T03:07:53.536Z,14.40
2019-05-26T03:10:15.207Z,14.30
2019-05-26T03:12:41.546Z,14.30
2019-05-26T03:15:06.078Z,14.30
2019-05-26T03:17:31.187Z,14.30
2019-05-26T03:19:54.263Z,14.30
2019-05-26T03:22:37.414Z,14.20
2019-05-26T03:24:59.695Z,14.20
2019-05-26T03:27:21.686Z,14.30
2019-05-26T03:29:43.315Z,14.30
2019-05-26T03:32:05.265Z,14.40
2019-05-26T03:34:26.747Z,14.50
2019-05-26T03:36:48.455Z,14.60
2019-05-26T03:39:10.267Z,14.60
2019-05-26T03:41:31.749Z,14.70
2019-05-26T03:43:53.277Z,14.80
2019-05-26T03:46:18.754Z,14.90
2019-05-26T03:48:40.346Z,15.00
2019-05-26T03:51:01.876Z,15.00
2019-05-26T03:53:23.451Z,15.10
2019-05-26T03:55:44.931Z,15.20
2019-05-26T03:58:06.454Z,15.30
2019-05-26T04:00:27.931Z,15.40
2019-05-26T04:02:49.534Z,15.40
2019-05-26T04:05:11.457Z,15.40
2019-05-26T04:07:32.998Z,15.40
2019-05-26T04:10:04.653Z,15.30
2019-05-26T04:12:17.999Z,15.40
2019-05-26T04:14:39.580Z,15.50
2019-05-26T04:17:01.065Z,15.40
2019-05-26T04:19:22.702Z,15.50
2019-05-26T04:21:44.187Z,15.50
2019-05-26T04:24:05.662Z,15.50
2019-05-26T04:26:27.302Z,15.60
2019-05-26T04:28:48.879Z,15.70
2019-05-26T04:31:10.398Z,15.80
2019-05-26T04:33:32.047Z,15.80
2019-05-26T04:35:53.519Z,15.90
2019-05-26T04:38:15.011Z,16.00
2019-05-26T04:40:36.887Z,16.10
2019-05-26T04:42:58.485Z,16.20
2019-05-26T04:45:19.974Z,16.30
2019-05-26T04:47:41.593Z,16.40
2019-05-26T04:50:06.411Z,16.40
2019-05-26T04:52:27.992Z,16.40
2019-05-26T04:54:49.647Z,16.40
2019-05-26T04:57:11.144Z,16.50
2019-05-26T04:59:32.631Z,16.50
2019-05-26T05:01:54.634Z,16.70
2019-05-26T05:04:16.231Z,16.70
2019-05-26T05:06:37.924Z,16.80
2019-05-26T05:08:59.771Z,16.80
2019-05-26T05:11:21.349Z,16.80
2019-05-26T05:13:43.458Z,16.90
2019-05-26T05:16:05.093Z,16.90
2019-05-26T05:18:26.686Z,16.90
2019-05-26T05:20:48.161Z,16.90
2019-05-26T05:23:09.754Z,16.90
2019-05-26T05:25:31.166Z,16.90
2019-05-26T05:27:52.858Z,17.00
2019-05-26T05:30:16.314Z,17.10
2019-05-26T05:32:37.872Z,17.20
2019-05-26T05:34:59.367Z,17.20
2019-05-26T05:37:20.878Z,17.30
2019-05-26T05:39:42.473Z,17.40
2019-05-26T05:42:04.438Z,17.40
2019-05-26T05:44:26.055Z,17.50
2019-05-26T05:46:47.647Z,17.60
2019-05-26T05:49:09.127Z,17.70
2019-05-26T05:51:30.643Z,17.90
2019-05-26T05:53:52.239Z,17.90
2019-05-26T05:56:13.835Z,18.00
2019-05-26T05:58:35.362Z,18.00
2019-05-26T06:00:56.850Z,18.10
2019-05-26T06:03:18.867Z,18.20
2019-05-26T06:05:40.648Z,18.20
2019-05-26T06:08:02.148Z,18.20
2019-05-26T06:10:23.830Z,18.30
2019-05-26T06:12:45.372Z,18.30
2019-05-26T06:15:09.017Z,18.30
2019-05-26T06:17:30.782Z,18.50
2019-05-26T06:19:52.837Z,18.60
2019-05-26T06:22:14.425Z,18.70
2019-05-26T06:24:36.041Z,18.80
2019-05-26T06:26:57.669Z,18.90
2019-05-26T06:29:19.152Z,19.10
2019-05-26T06:31:40.764Z,19.20
2019-05-26T06:34:02.391Z,19.20
2019-05-26T06:36:23.978Z,19.30
2019-05-26T06:38:45.471Z,19.40
2019-05-26T06:41:06.986Z,19.60
2019-05-26T06:43:28.474Z,19.70
2019-05-26T06:45:50.358Z,19.80
2019-05-26T06:48:11.982Z,19.90
2019-05-26T06:50:33.665Z,20.00
2019-05-26T06:52:55.387Z,20.10
2019-05-26T06:55:17.355Z,20.20
2019-05-26T06:57:38.954Z,20.30
2019-05-26T07:00:00.436Z,20.40
2019-05-26T07:02:21.960Z,20.50
2019-05-26T07:04:43.455Z,20.50
2019-05-26T07:07:05.025Z,20.60
2019-05-26T07:09:26.670Z,20.70
2019-05-26T07:11:55.914Z,20.80
2019-05-26T07:14:11.963Z,20.90
2019-05-26T07:16:38.042Z,20.90
2019-05-26T07:18:56.935Z,21.00
2019-05-26T07:21:18.421Z,21.10
2019-05-26T07:23:40.039Z,21.20
2019-05-26T07:26:01.631Z,21.20
2019-05-26T07:28:23.170Z,21.40
2019-05-26T07:30:44.785Z,21.40
2019-05-26T07:33:06.674Z,21.50
2019-05-26T07:35:28.452Z,21.60
2019-05-26T07:37:50.383Z,21.60
2019-05-26T07:40:12.055Z,21.60
2019-05-26T07:42:33.985Z,21.70
2019-05-26T07:44:55.584Z,21.70
2019-05-26T07:47:17.074Z,21.80
2019-05-26T07:49:38.645Z,21.80
2019-05-26T07:52:00.139Z,21.90
2019-05-26T07:54:25.496Z,22.00
2019-05-26T07:56:45.068Z,22.10
2019-05-26T07:59:06.650Z,22.10
2019-05-26T08:01:35.493Z,22.30
2019-05-26T08:03:51.938Z,22.30
2019-05-26T08:06:14.774Z,22.40
2019-05-26T08:08:36.714Z,22.50
2019-05-26T08:10:58.374Z,22.60
2019-05-26T08:13:19.973Z,22.60
2019-05-26T08:15:42.294Z,22.70
2019-05-26T08:18:04.049Z,22.70
2019-05-26T08:20:25.949Z,22.80
2019-05-26T08:22:47.537Z,22.80
2019-05-26T08:25:09.277Z,22.90
2019-05-26T08:27:30.771Z,23.00
2019-05-26T08:29:52.267Z,23.10
2019-05-26T08:32:15.183Z,23.10
2019-05-26T08:34:36.883Z,23.10
2019-05-26T08:36:58.479Z,23.10
2019-05-26T08:39:20.006Z,23.10
2019-05-26T08:41:41.503Z,23.20
2019-05-26T08:44:04.196Z,23.20
2019-05-26T08:46:25.719Z,23.30
2019-05-26T08:48:47.324Z,23.30
2019-05-26T08:51:08.963Z,23.40
2019-05-26T08:53:30.565Z,23.40
2019-05-26T08:55:52.922Z,23.60
2019-05-26T08:58:15.354Z,23.70
2019-05-26T09:00:37.869Z,23.80
2019-05-26T09:03:00.257Z,23.90
2019-05-26T09:05:22.808Z,24.00
2019-05-26T09:07:44.568Z,24.10
2019-05-26T09:10:07.226Z,24.20
2019-05-26T09:12:28.832Z,24.20
2019-05-26T09:14:51.620Z,24.30
2019-05-26T09:17:14.037Z,24.50
2019-05-26T09:19:35.750Z,24.60
2019-05-26T09:21:57.394Z,24.70
2019-05-26T09:24:18.870Z,24.80
2019-05-26T09:26:40.336Z,24.90
2019-05-26T09:29:01.870Z,24.90
2019-05-26T09:31:23.367Z,25.00
2019-05-26T09:33:44.960Z,25.20
2019-05-26T09:36:06.585Z,25.30
2019-05-26T09:38:28.073Z,25.40
2019-05-26T09:40:49.698Z,25.50
2019-05-26T09:43:15.973Z,25.60
2019-05-26T09:45:35.154Z,25.60
2019-05-26T09:47:56.641Z,25.70
2019-05-26T09:50:18.472Z,25.80
2019-05-26T09:52:40.078Z,25.60
2019-05-26T09:55:01.874Z,25.60
2019-05-26T09:57:23.507Z,25.50
2019-05-26T09:59:44.986Z,25.50
2019-05-26T10:02:06.499Z,25.60
2019-05-26T10:04:28.093Z,25.70
2019-05-26T10:06:50.011Z,25.80
2019-05-26T10:09:11.574Z,26.00
2019-05-26T10:11:33.132Z,26.10
2019-05-26T10:13:54.623Z,26.30
2019-05-26T10:16:16.304Z,26.40
2019-05-26T10:18:37.918Z,26.30
2019-05-26T10:20:59.635Z,26.40
2019-05-26T10:23:21.484Z,26.50
2019-05-26T10:25:42.992Z,26.40
2019-05-26T10:28:05.053Z,26.40
2019-05-26T10:30:26.603Z,26.50
2019-05-26T10:32:48.187Z,26.50
2019-05-26T10:35:11.034Z,26.70
2019-05-26T10:37:32.655Z,26.80
2019-05-26T10:39:54.546Z,26.80
2019-05-26T10:42:16.070Z,26.80
2019-05-26T10:44:37.591Z,26.90
2019-05-26T10:46:59.073Z,26.90
2019-05-26T10:49:20.559Z,26.70
2019-05-26T10:51:42.213Z,26.70
2019-05-26T10:54:23.434Z,26.70
2019-05-26T10:56:44.973Z,26.70
2019-05-26T10:59:06.462Z,26.70
2019-05-26T11:01:28.083Z,26.60
2019-05-26T11:03:49.694Z,26.60
2019-05-26T11:06:11.249Z,26.60
2019-05-26T11:08:32.741Z,26.50
2019-05-26T11:10:54.422Z,26.50
2019-05-26T11:13:16.025Z,26.50
2019-05-26T11:15:37.607Z,26.60
2019-05-26T11:17:59.121Z,26.70
2019-05-26T11:20:20.923Z,26.70
2019-05-26T11:22:42.768Z,26.80
2019-05-26T11:25:06.895Z,26.90
2019-05-26T11:27:28.379Z,27.00
2019-05-26T11:29:50.330Z,27.10
2019-05-26T11:32:11.855Z,27.20
2019-05-26T11:34:33.769Z,27.40
2019-05-26T11:36:55.238Z,27.60
2019-05-26T11:39:16.855Z,27.60
2019-05-26T11:41:38.332Z,27.70
2019-05-26T11:43:59.962Z,27.80
2019-05-26T11:46:21.518Z,27.70
2019-05-26T11:48:43.000Z,27.50
2019-05-26T11:51:04.620Z,27.50
2019-05-26T11:53:26.189Z,27.40
2019-05-26T11:55:47.640Z,27.30
2019-05-26T11:58:09.130Z,27.10
2019-05-26T12:00:30.783Z,27.10
2019-05-26T12:02:52.367Z,27.10
2019-05-26T12:05:17.282Z,27.10
2019-05-26T12:07:37.328Z,27.10
2019-05-26T12:09:58.923Z,26.90
2019-05-26T12:12:20.510Z,26.80
2019-05-26T12:14:42.118Z,26.80
2019-05-26T12:17:03.728Z,26.90
2019-05-26T12:19:25.351Z,26.90
2019-05-26T12:21:46.939Z,27.10
2019-05-26T12:24:08.504Z,27.10
2019-05-26T12:26:30.041Z,27.20
2019-05-26T12:28:51.528Z,27.30
2019-05-26T12:31:13.123Z,27.30
2019-05-26T12:33:34.641Z,27.40
2019-05-26T12:35:56.288Z,27.40
2019-05-26T12:38:17.770Z,27.30
2019-05-26T12:40:39.683Z,27.40
2019-05-26T12:43:01.289Z,27.30
2019-05-26T12:45:22.763Z,27.50
2019-05-26T12:47:44.273Z,27.60
2019-05-26T12:50:06.764Z,27.80
2019-05-26T12:52:28.272Z,27.90
2019-05-26T12:54:49.893Z,28.00
2019-05-26T12:57:11.482Z,28.00
2019-05-26T12:59:32.972Z,28.10
2019-05-26T13:01:54.994Z,28.20
2019-05-26T13:04:16.590Z,28.10
2019-05-26T13:06:38.185Z,28.10
2019-05-26T13:08:59.812Z,28.20
2019-05-26T13:11:22.901Z,28.20
2019-05-26T13:13:44.709Z,28.10
2019-05-26T13:16:06.235Z,27.90
2019-05-26T13:18:27.845Z,27.80
2019-05-26T13:20:49.349Z,27.60
2019-05-26T13:23:10.979Z,27.60
2019-05-26T13:25:33.297Z,27.60
2019-05-26T13:27:54.914Z,27.60
2019-05-26T13:30:21.458Z,27.50
2019-05-26T13:32:42.951Z,27.50
2019-05-26T13:35:05.937Z,27.50
2019-05-26T13:37:27.450Z,27.60
2019-05-26T13:39:49.070Z,27.70
2019-05-26T13:42:10.665Z,27.70
2019-05-26T13:44:32.244Z,27.80
2019-05-26T13:46:53.912Z,27.80
2019-05-26T13:49:15.403Z,27.80
2019-05-26T13:51:36.878Z,27.70
2019-05-26T13:53:58.543Z,27.60
2019-05-26T13:56:20.148Z,27.60
2019-05-26T13:58:41.953Z,27.70
2019-05-26T14:01:03.685Z,27.80
2019-05-26T14:03:25.178Z,28.00
2019-05-26T14:05:46.779Z,28.20
2019-05-26T14:08:08.476Z,28.20
2019-05-26T14:10:36.007Z,28.30
2019-05-26T14:12:57.565Z,28.50
2019-05-26T14:15:19.310Z,28.70
2019-05-26T14:17:41.535Z,28.80
2019-05-26T14:20:07.132Z,29.00
2019-05-26T14:22:28.640Z,29.10
2019-05-26T14:24:53.979Z,29.20
2019-05-26T14:27:13.762Z,29.30
2019-05-26T14:29:35.306Z,29.40
2019-05-26T14:31:57.189Z,29.50
2019-05-26T14:34:18.782Z,29.70
2019-05-26T14:36:40.430Z,29.70
2019-05-26T14:39:01.932Z,29.80
2019-05-26T14:41:23.519Z,29.80
2019-05-26T14:43:45.057Z,29.80
2019-05-26T14:46:07.005Z,29.70
2019-05-26T14:48:28.498Z,29.70
2019-05-26T14:50:50.130Z,29.70
2019-05-26T14:53:11.726Z,29.80
2019-05-26T14:55:37.196Z,29.90
2019-05-26T14:58:14.202Z,30.00
2019-05-26T15:00:22.965Z,30.10
2019-05-26T15:02:44.563Z,30.20
2019-05-26T15:05:07.077Z,30.10
2019-05-26T15:07:28.587Z,30.10
2019-05-26T15:09:50.312Z,30.20
2019-05-26T15:12:11.934Z,30.30
2019-05-26T15:14:33.498Z,30.30
2019-05-26T15:16:54.999Z,30.40
2019-05-26T15:19:16.648Z,30.50
2019-05-26T15:21:38.247Z,30.50
2019-05-26T15:23:59.861Z,30.70
2019-05-26T15:26:21.543Z,30.60
2019-05-26T15:28:43.126Z,30.40
2019-05-26T15:31:04.610Z,30.20
2019-05-26T15:33:26.923Z,30.10
2019-05-26T15:35:48.886Z,29.90
2019-05-26T15:38:10.474Z,29.70
2019-05-26T15:40:32.014Z,29.40
2019-05-26T15:42:53.509Z,29.20
2019-05-26T15:45:16.883Z,29.10
2019-05-26T15:47:38.473Z,29.10
2019-05-26T15:50:00.060Z,29.00
2019-05-26T15:52:21.991Z,29.00
2019-05-26T15:54:43.617Z,29.00
2019-05-26T15:57:05.098Z,29.10
2019-05-26T15:59:26.699Z,29.20
2019-05-26T16:01:48.335Z,29.30
2019-05-26T16:04:10.056Z,29.30
2019-05-26T16:06:31.653Z,29.20
2019-05-26T16:08:53.414Z,29.10
2019-05-26T16:11:15.214Z,29.10
2019-05-26T16:13:36.947Z,29.10
2019-05-26T16:15:58.580Z,28.90
2019-05-26T16:18:28.935Z,28.90
2019-05-26T16:21:02.357Z,28.80
2019-05-26T16:23:14.261Z,28.80
2019-05-26T16:25:35.754Z,28.70
2019-05-26T16:27:57.258Z,28.60
2019-05-26T16:30:18.883Z,28.50
2019-05-26T16:32:40.377Z,28.40
2019-05-26T16:35:02.570Z,28.30
2019-05-26T16:37:24.467Z,28.20
2019-05-26T16:39:46.032Z,28.20
2019-05-26T16:42:07.525Z,28.40
2019-05-26T16:44:29.150Z,28.60
2019-05-26T16:46:56.471Z,29.00
2019-05-26T16:49:14.039Z,29.40
2019-05-26T16:51:35.873Z,29.90
2019-05-26T16:53:57.844Z,30.40
2019-05-26T16:56:19.425Z,30.90
2019-05-26T16:58:40.968Z,31.30
2019-05-26T17:01:02.568Z,31.80
2019-05-26T17:03:24.158Z,31.90
2019-05-26T17:05:45.787Z,31.60
2019-05-26T17:08:07.604Z,31.20
2019-05-26T17:10:29.093Z,30.90
2019-05-26T17:12:51.125Z,30.40
2019-05-26T17:15:12.804Z,29.80
2019-05-26T17:17:34.293Z,29.40
2019-05-26T17:19:55.812Z,29.10
2019-05-26T17:22:17.502Z,28.80
2019-05-26T17:24:39.098Z,28.50
2019-05-26T17:27:00.584Z,28.30
2019-05-26T17:29:22.125Z,28.10
2019-05-26T17:31:43.720Z,28.00
2019-05-26T17:34:05.315Z,27.80
2019-05-26T17:36:26.959Z,27.70
2019-05-26T17:38:48.571Z,27.60
2019-05-26T17:41:09.979Z,27.50
2019-05-26T17:43:31.514Z,27.30
2019-05-26T17:45:53.107Z,27.20
2019-05-26T17:48:14.718Z,27.00
2019-05-26T17:50:36.249Z,26.90
2019-05-26T17:52:57.749Z,26.80
2019-05-26T17:55:19.574Z,26.70
2019-05-26T17:57:41.211Z,26.60
2019-05-26T18:00:06.509Z,26.50
2019-05-26T18:02:27.995Z,26.40
2019-05-26T18:04:49.620Z,26.30
2019-05-26T18:07:11.213Z,26.20
2019-05-26T18:09:43.740Z,26.10
2019-05-26T18:11:56.171Z,25.90
2019-05-26T18:14:17.776Z,25.90
2019-05-26T18:16:39.385Z,25.80
2019-05-26T18:19:01.407Z,25.70
2019-05-26T18:21:23.015Z,25.60
2019-05-26T18:23:44.662Z,25.50
2019-05-26T18:26:06.269Z,25.40
2019-05-26T18:28:27.861Z,25.30
2019-05-26T18:30:49.458Z,25.30
2019-05-26T18:33:11.083Z,25.10
2019-05-26T18:35:32.730Z,25.00
2019-05-26T18:37:54.330Z,25.00
2019-05-26T18:40:16.048Z,24.90
2019-05-26T18:42:37.929Z,24.70
2019-05-26T18:44:59.534Z,24.70
2019-05-26T18:47:28.348Z,24.60
2019-05-26T18:49:49.802Z,24.50
2019-05-26T18:52:11.795Z,24.40
2019-05-26T18:54:33.342Z,24.30
2019-05-26T18:56:54.930Z,24.20
2019-05-26T18:59:16.560Z,24.10
2019-05-26T19:01:38.333Z,24.00
2019-05-26T19:03:59.838Z,24.00
2019-05-26T19:06:22.237Z,23.90
2019-05-26T19:08:43.769Z,23.80
2019-05-26T19:11:05.695Z,23.70
2019-05-26T19:13:27.302Z,23.70
2019-05-26T19:15:49.326Z,23.60
2019-05-26T19:18:19.770Z,23.60
2019-05-26T19:20:34.207Z,23.50
2019-05-26T19:23:02.554Z,23.40
2019-05-26T19:25:24.109Z,23.40
2019-05-26T19:27:45.715Z,23.40
2019-05-26T19:30:08.648Z,23.30
2019-05-26T19:32:30.309Z,23.30
2019-05-26T19:34:51.927Z,23.20
2019-05-26T19:37:14.318Z,23.20
2019-05-26T19:39:36.254Z,23.10
2019-05-26T19:41:57.958Z,23.10
2019-05-26T19:44:19.578Z,23.00
2019-05-26T19:46:41.193Z,23.00
2019-05-26T19:49:05.962Z,23.00
2019-05-26T19:51:27.462Z,22.90
2019-05-26T19:53:49.063Z,22.90
2019-05-26T19:56:13.345Z,22.80
2019-05-26T19:58:34.950Z,22.80
2019-05-26T20:00:56.818Z,22.80
2019-05-26T20:03:18.745Z,22.70
2019-05-26T20:05:40.281Z,22.70
2019-05-26T20:08:01.893Z,22.70
2019-05-26T20:10:24.077Z,22.60
2019-05-26T20:12:45.798Z,22.50
2019-05-26T20:15:08.789Z,22.50
2019-05-26T20:17:32.287Z,22.40
2019-05-26T20:19:54.243Z,22.40
2019-05-26T20:22:15.818Z,22.30
2019-05-26T20:24:40.323Z,22.30
2019-05-26T20:27:01.960Z,22.20
2019-05-26T20:29:23.465Z,22.10
2019-05-26T20:31:45.100Z,22.10
2019-05-26T20:34:06.905Z,22.00
2019-05-26T20:36:28.505Z,21.90
2019-05-26T20:38:54.365Z,21.90
2019-05-26T20:41:15.846Z,21.80
2019-05-26T20:43:37.344Z,21.70
2019-05-26T20:45:59.465Z,21.70
2019-05-26T20:48:21.305Z,21.70
2019-05-26T20:50:42.908Z,21.60
2019-05-26T20:53:04.553Z,21.60
2019-05-26T20:55:26.729Z,21.50
2019-05-26T20:57:48.230Z,21.50
2019-05-26T21:00:11.564Z,21.50
2019-05-26T21:02:34.632Z,21.40
2019-05-26T21:04:56.133Z,21.30
2019-05-26T21:07:17.760Z,21.30
2019-05-26T21:09:39.361Z,21.30
2019-05-26T21:12:01.107Z,21.20
2019-05-26T21:14:22.741Z,21.20
2019-05-26T21:16:44.221Z,21.20
2019-05-26T21:19:05.823Z,21.10
2019-05-26T21:21:27.341Z,21.00
2019-05-26T21:23:48.917Z,21.00
2019-05-26T21:26:15.353Z,20.90
2019-05-26T21:28:37.073Z,20.90
2019-05-26T21:30:58.594Z,20.90
2019-05-26T21:33:20.182Z,20.80
2019-05-26T21:35:42.014Z,20.80
2019-05-26T21:38:03.623Z,20.80
2019-05-26T21:40:25.250Z,20.70
2019-05-26T21:42:47.206Z,20.70
2019-05-26T21:45:09.300Z,20.60
2019-05-26T21:47:30.923Z,20.60
2019-05-26T21:49:52.786Z,20.60
2019-05-26T21:52:14.386Z,20.50
2019-05-26T21:54:36.227Z,20.50
2019-05-26T21:56:58.140Z,20.40
2019-05-26T21:59:19.644Z,20.30
2019-05-26T22:01:41.278Z,20.30
2019-05-26T22:04:03.449Z,20.20
2019-05-26T22:06:25.024Z,20.20
2019-05-26T22:08:46.974Z,20.20
2019-05-26T22:11:08.557Z,20.10
2019-05-26T22:13:30.051Z,20.10
2019-05-26T22:15:51.594Z,20.00
2019-05-26T22:18:13.177Z,20.00
2019-05-26T22:20:34.775Z,19.90
2019-05-26T22:22:56.343Z,19.90
2019-05-26T22:25:17.923Z,19.80
2019-05-26T22:27:39.401Z,19.70
2019-05-26T22:30:01.311Z,19.70
2019-05-26T22:32:22.792Z,19.70
2019-05-26T22:34:44.384Z,19.60
2019-05-26T22:37:06.017Z,19.60
2019-05-26T22:39:27.558Z,19.50
2019-05-26T22:41:58.179Z,19.50
2019-05-26T22:44:19.698Z,19.40
2019-05-26T22:46:41.298Z,19.30
2019-05-26T22:49:02.981Z,19.20
2019-05-26T22:51:24.636Z,19.20
2019-05-26T22:53:46.239Z,19.20
2019-05-26T22:56:07.722Z,19.10
2019-05-26T22:58:29.613Z,19.10
2019-05-26T23:00:51.222Z,19.10
2019-05-26T23:03:12.714Z,19.10
2019-05-26T23:05:34.350Z,19.10
2019-05-26T23:07:55.929Z,19.00
2019-05-26T23:10:17.414Z,19.00
2019-05-26T23:12:39.069Z,19.00
2019-05-26T23:15:00.553Z,19.00
2019-05-26T23:17:22.148Z,18.90
2019-05-26T23:19:43.652Z,18.90
2019-05-26T23:22:05.142Z,18.90
2019-05-26T23:24:26.630Z,18.90
2019-05-26T23:26:48.269Z,18.90
2019-05-26T23:29:09.854Z,18.90
2019-05-26T23:31:31.975Z,18.90
2019-05-26T23:33:53.503Z,18.80
2019-05-26T23:36:14.995Z,18.80
2019-05-26T23:38:36.486Z,18.70
2019-05-26T23:40:58.585Z,18.70
2019-05-26T23:43:20.094Z,18.60
2019-05-26T23:45:41.699Z,18.60
2019-05-26T23:48:03.332Z,18.60
2019-05-26T23:50:24.923Z,18.50
2019-05-26T23:52:46.523Z,18.50
2019-05-26T23:55:09.226Z,18.50
2019-05-26T23:57:30.845Z,18.40
2019-05-26T23:59:52.459Z,18.40
